sensor_id;sensor_type;location;lat;lon;timestamp;pressure;altitude;pressure_sealevel;temperature;humidity
692;BME280;70475;50.084;8.576;2024-03-02T00:00:54;99524.19;;;2.47;100.00
692;BME280;70475;50.084;8.576;2024-03-02T00:03:38;99515.03;;;2.51;100.00
692;BME280;70475;50.084;8.576;2024-03-02T00:06:37;99528.63;;;2.46;100.00
692;BME280;70475;50.084;8.576;2024-03-02T00:09:09;99531.25;;;2.46;100.00
692;BME280;70475;50.084;8.576;2024-03-02T00:11:38;99527.28;;;2.42;100.00
692;BME280;70475;50.084;8.576;2024-03-02T00:14:07;99528.13;;;2.43;100.00
692;BME280;70475;50.084;8.576;2024-03-02T00:16:35;99510.88;;;2.40;100.00
692;BME280;70475;50.084;8.576;2024-03-02T00:19:05;99507.63;;;2.46;100.00
692;BME280;70475;50.084;8.576;2024-03-02T00:21:35;99510.59;;;2.59;100.00
692;BME280;70475;50.084;8.576;2024-03-02T00:24:18;99514.38;;;2.57;100.00
692;BME280;70475;50.084;8.576;2024-03-02T00:26:47;99512.22;;;2.52;100.00
692;BME280;70475;50.084;8.576;2024-03-02T00:29:16;99510.72;;;2.42;100.00
692;BME280;70475;50.084;8.576;2024-03-02T00:31:45;99508.56;;;2.37;100.00
692;BME280;70475;50.084;8.576;2024-03-02T00:34:15;99495.91;;;2.33;100.00
692;BME280;70475;50.084;8.576;2024-03-02T00:36:44;99500.00;;;2.35;100.00
692;BME280;70475;50.084;8.576;2024-03-02T00:39:14;99502.94;;;2.24;100.00
692;BME280;70475;50.084;8.576;2024-03-02T00:41:43;99504.91;;;2.22;100.00
692;BME280;70475;50.084;8.576;2024-03-02T00:44:21;99503.44;;;2.20;100.00
692;BME280;70475;50.084;8.576;2024-03-02T00:46:53;99516.81;;;2.08;100.00
692;BME280;70475;50.084;8.576;2024-03-02T00:49:21;99519.44;;;2.08;100.00
692;BME280;70475;50.084;8.576;2024-03-02T00:51:51;99520.59;;;2.06;100.00
692;BME280;70475;50.084;8.576;2024-03-02T00:54:22;99536.34;;;2.06;100.00
692;BME280;70475;50.084;8.576;2024-03-02T00:56:52;99519.28;;;2.02;100.00
692;BME280;70475;50.084;8.576;2024-03-02T00:59:22;99515.97;;;2.00;100.00
692;BME280;70475;50.084;8.576;2024-03-02T01:01:50;99524.84;;;2.07;100.00
692;BME280;70475;50.084;8.576;2024-03-02T01:04:18;99512.66;;;1.98;100.00
692;BME280;70475;50.084;8.576;2024-03-02T01:06:46;99522.44;;;2.13;100.00
692;BME280;70475;50.084;8.576;2024-03-02T01:09:14;99523.25;;;2.14;100.00
692;BME280;70475;50.084;8.576;2024-03-02T01:15:54;99533.34;;;2.01;100.00
692;BME280;70475;50.084;8.576;2024-03-02T01:18:43;99528.09;;;2.01;100.00
692;BME280;70475;50.084;8.576;2024-03-02T01:21:23;99527.78;;;1.96;100.00
692;BME280;70475;50.084;8.576;2024-03-02T01:23:52;99508.28;;;2.06;100.00
692;BME280;70475;50.084;8.576;2024-03-02T01:26:53;99517.97;;;2.06;100.00
692;BME280;70475;50.084;8.576;2024-03-02T01:37:11;99508.31;;;2.14;100.00
692;BME280;70475;50.084;8.576;2024-03-02T01:40:06;99505.41;;;2.26;100.00
692;BME280;70475;50.084;8.576;2024-03-02T01:42:36;99506.28;;;2.42;100.00
692;BME280;70475;50.084;8.576;2024-03-02T01:45:05;99515.44;;;2.30;100.00
692;BME280;70475;50.084;8.576;2024-03-02T01:47:34;99501.91;;;2.09;100.00
692;BME280;70475;50.084;8.576;2024-03-02T01:50:02;99494.97;;;2.00;100.00
692;BME280;70475;50.084;8.576;2024-03-02T01:52:31;99499.00;;;1.86;100.00
692;BME280;70475;50.084;8.576;2024-03-02T01:54:59;99497.06;;;1.88;100.00
692;BME280;70475;50.084;8.576;2024-03-02T01:57:27;99495.22;;;1.89;100.00
692;BME280;70475;50.084;8.576;2024-03-02T01:59:54;99491.28;;;1.85;100.00
692;BME280;70475;50.084;8.576;2024-03-02T02:02:22;99490.91;;;1.72;100.00
692;BME280;70475;50.084;8.576;2024-03-02T02:04:50;99482.97;;;1.64;100.00
692;BME280;70475;50.084;8.576;2024-03-02T02:07:18;99483.28;;;1.61;100.00
692;BME280;70475;50.084;8.576;2024-03-02T02:09:47;99486.38;;;1.56;100.00
692;BME280;70475;50.084;8.576;2024-03-02T02:12:15;99482.78;;;1.57;100.00
692;BME280;70475;50.084;8.576;2024-03-02T02:14:47;99470.78;;;1.55;100.00
692;BME280;70475;50.084;8.576;2024-03-02T02:17:15;99480.63;;;1.53;100.00
692;BME280;70475;50.084;8.576;2024-03-02T02:19:43;99468.50;;;1.52;100.00
692;BME280;70475;50.084;8.576;2024-03-02T02:22:12;99474.69;;;1.51;100.00
692;BME280;70475;50.084;8.576;2024-03-02T02:24:40;99472.50;;;1.38;100.00
692;BME280;70475;50.084;8.576;2024-03-02T02:27:08;99481.34;;;1.37;100.00
692;BME280;70475;50.084;8.576;2024-03-02T02:29:36;99470.03;;;1.37;100.00
692;BME280;70475;50.084;8.576;2024-03-02T02:32:05;99470.84;;;1.37;100.00
692;BME280;70475;50.084;8.576;2024-03-02T02:34:33;99471.59;;;1.30;100.00
692;BME280;70475;50.084;8.576;2024-03-02T02:37:00;99468.66;;;1.25;100.00
692;BME280;70475;50.084;8.576;2024-03-02T02:39:30;99474.66;;;1.17;100.00
692;BME280;70475;50.084;8.576;2024-03-02T02:41:58;99471.81;;;1.11;100.00
692;BME280;70475;50.084;8.576;2024-03-02T02:44:27;99477.81;;;1.03;100.00
692;BME280;70475;50.084;8.576;2024-03-02T02:46:55;99464.16;;;1.17;100.00
692;BME280;70475;50.084;8.576;2024-03-02T02:49:22;99469.94;;;1.21;100.00
692;BME280;70475;50.084;8.576;2024-03-02T02:51:50;99466.22;;;1.06;100.00
692;BME280;70475;50.084;8.576;2024-03-02T02:54:18;99456.06;;;1.28;100.00
692;BME280;70475;50.084;8.576;2024-03-02T02:56:47;99459.81;;;1.59;100.00
692;BME280;70475;50.084;8.576;2024-03-02T02:59:14;99454.47;;;1.35;100.00
692;BME280;70475;50.084;8.576;2024-03-02T03:01:42;99455.69;;;1.23;100.00
692;BME280;70475;50.084;8.576;2024-03-02T03:04:10;99453.16;;;1.14;100.00
692;BME280;70475;50.084;8.576;2024-03-02T03:06:38;99456.44;;;1.16;100.00
692;BME280;70475;50.084;8.576;2024-03-02T03:09:06;99445.44;;;1.12;100.00
692;BME280;70475;50.084;8.576;2024-03-02T03:11:33;99449.94;;;1.45;100.00
692;BME280;70475;50.084;8.576;2024-03-02T03:14:02;99453.84;;;1.41;100.00
692;BME280;70475;50.084;8.576;2024-03-02T03:16:31;99447.09;;;1.39;100.00
692;BME280;70475;50.084;8.576;2024-03-02T03:18:58;99440.72;;;1.41;100.00
692;BME280;70475;50.084;8.576;2024-03-02T03:21:26;99443.06;;;1.52;100.00
692;BME280;70475;50.084;8.576;2024-03-02T03:23:53;99451.16;;;1.59;100.00
692;BME280;70475;50.084;8.576;2024-03-02T03:26:21;99445.66;;;1.44;100.00
692;BME280;70475;50.084;8.576;2024-03-02T03:28:49;99439.44;;;1.45;100.00
692;BME280;70475;50.084;8.576;2024-03-02T03:31:18;99434.88;;;1.47;100.00
692;BME280;70475;50.084;8.576;2024-03-02T03:33:45;99424.84;;;1.43;100.00
692;BME280;70475;50.084;8.576;2024-03-02T03:36:13;99434.34;;;1.44;100.00
692;BME280;70475;50.084;8.576;2024-03-02T03:38:40;99440.31;;;1.28;100.00
692;BME280;70475;50.084;8.576;2024-03-02T03:41:08;99429.50;;;1.31;100.00
692;BME280;70475;50.084;8.576;2024-03-02T03:43:36;99433.75;;;1.58;100.00
692;BME280;70475;50.084;8.576;2024-03-02T03:46:03;99441.97;;;1.63;100.00
692;BME280;70475;50.084;8.576;2024-03-02T03:48:32;99454.16;;;1.38;100.00
692;BME280;70475;50.084;8.576;2024-03-02T03:51:00;99464.94;;;1.35;100.00
692;BME280;70475;50.084;8.576;2024-03-02T03:53:27;99453.16;;;1.39;100.00
692;BME280;70475;50.084;8.576;2024-03-02T03:55:55;99455.94;;;1.38;100.00
692;BME280;70475;50.084;8.576;2024-03-02T03:58:22;99456.31;;;1.43;100.00
692;BME280;70475;50.084;8.576;2024-03-02T04:00:50;99462.81;;;1.39;100.00
692;BME280;70475;50.084;8.576;2024-03-02T04:03:18;99451.53;;;1.38;100.00
692;BME280;70475;50.084;8.576;2024-03-02T04:05:46;99447.91;;;1.39;100.00
692;BME280;70475;50.084;8.576;2024-03-02T04:08:14;99439.28;;;1.47;100.00
692;BME280;70475;50.084;8.576;2024-03-02T04:10:42;99445.84;;;1.51;100.00
692;BME280;70475;50.084;8.576;2024-03-02T04:13:09;99443.06;;;1.52;100.00
692;BME280;70475;50.084;8.576;2024-03-02T04:15:37;99450.16;;;1.60;100.00
692;BME280;70475;50.084;8.576;2024-03-02T04:18:05;99448.72;;;1.65;100.00
692;BME280;70475;50.084;8.576;2024-03-02T04:20:32;99446.59;;;1.69;100.00
692;BME280;70475;50.084;8.576;2024-03-02T04:23:01;99443.47;;;1.65;100.00
692;BME280;70475;50.084;8.576;2024-03-02T04:25:29;99445.13;;;1.66;100.00
692;BME280;70475;50.084;8.576;2024-03-02T04:27:57;99452.00;;;1.67;100.00
692;BME280;70475;50.084;8.576;2024-03-02T04:30:24;99451.34;;;1.65;100.00
692;BME280;70475;50.084;8.576;2024-03-02T04:32:53;99456.41;;;1.67;100.00
692;BME280;70475;50.084;8.576;2024-03-02T04:35:20;99447.91;;;1.65;100.00
692;BME280;70475;50.084;8.576;2024-03-02T04:37:48;99451.47;;;1.64;100.00
692;BME280;70475;50.084;8.576;2024-03-02T04:40:17;99454.78;;;1.66;100.00
692;BME280;70475;50.084;8.576;2024-03-02T04:42:45;99450.78;;;1.54;100.00
692;BME280;70475;50.084;8.576;2024-03-02T04:45:12;99459.84;;;1.34;100.00
692;BME280;70475;50.084;8.576;2024-03-02T04:47:40;99456.16;;;1.44;100.00
692;BME280;70475;50.084;8.576;2024-03-02T04:50:08;99459.34;;;1.56;100.00
692;BME280;70475;50.084;8.576;2024-03-02T04:52:36;99457.94;;;1.44;100.00
692;BME280;70475;50.084;8.576;2024-03-02T04:55:04;99461.88;;;1.40;100.00
692;BME280;70475;50.084;8.576;2024-03-02T04:57:52;99461.13;;;1.30;100.00
692;BME280;70475;50.084;8.576;2024-03-02T05:00:21;99457.56;;;1.39;100.00
692;BME280;70475;50.084;8.576;2024-03-02T05:02:49;99457.25;;;1.42;100.00
692;BME280;70475;50.084;8.576;2024-03-02T05:05:17;99460.97;;;1.57;100.00
692;BME280;70475;50.084;8.576;2024-03-02T05:07:45;99458.09;;;1.76;100.00
692;BME280;70475;50.084;8.576;2024-03-02T05:10:12;99458.66;;;2.45;100.00
692;BME280;70475;50.084;8.576;2024-03-02T05:12:41;99458.66;;;2.45;100.00
692;BME280;70475;50.084;8.576;2024-03-02T05:15:25;99474.91;;;2.33;100.00
692;BME280;70475;50.084;8.576;2024-03-02T05:17:52;99466.03;;;1.84;100.00
692;BME280;70475;50.084;8.576;2024-03-02T05:20:20;99472.38;;;1.73;100.00
692;BME280;70475;50.084;8.576;2024-03-02T05:22:48;99472.69;;;1.70;100.00
692;BME280;70475;50.084;8.576;2024-03-02T05:25:16;99474.75;;;1.33;100.00
692;BME280;70475;50.084;8.576;2024-03-02T05:27:43;99469.81;;;1.30;100.00
692;BME280;70475;50.084;8.576;2024-03-02T05:30:11;99488.47;;;1.27;100.00
692;BME280;70475;50.084;8.576;2024-03-02T05:32:41;99489.47;;;1.26;100.00
692;BME280;70475;50.084;8.576;2024-03-02T05:35:08;99486.63;;;1.20;100.00
692;BME280;70475;50.084;8.576;2024-03-02T05:37:37;99502.06;;;1.23;100.00
692;BME280;70475;50.084;8.576;2024-03-02T05:40:06;99493.53;;;1.03;100.00
692;BME280;70475;50.084;8.576;2024-03-02T05:42:34;99494.78;;;0.91;100.00
692;BME280;70475;50.084;8.576;2024-03-02T05:45:02;99500.00;;;0.91;100.00
692;BME280;70475;50.084;8.576;2024-03-02T05:47:30;99499.19;;;0.91;100.00
692;BME280;70475;50.084;8.576;2024-03-02T05:49:59;99507.19;;;0.89;100.00
692;BME280;70475;50.084;8.576;2024-03-02T05:52:26;99511.06;;;1.03;100.00
692;BME280;70475;50.084;8.576;2024-03-02T05:54:54;99518.63;;;1.06;100.00
692;BME280;70475;50.084;8.576;2024-03-02T05:57:21;99514.44;;;1.13;100.00
692;BME280;70475;50.084;8.576;2024-03-02T06:00:12;99509.59;;;1.26;100.00
692;BME280;70475;50.084;8.576;2024-03-02T06:02:39;99523.91;;;1.31;100.00
692;BME280;70475;50.084;8.576;2024-03-02T06:05:10;99527.00;;;1.27;100.00
692;BME280;70475;50.084;8.576;2024-03-02T06:07:37;99520.47;;;1.31;100.00
692;BME280;70475;50.084;8.576;2024-03-02T06:10:06;99522.34;;;1.38;100.00
692;BME280;70475;50.084;8.576;2024-03-02T06:12:39;99530.09;;;1.48;100.00
692;BME280;70475;50.084;8.576;2024-03-02T06:15:08;99525.88;;;1.55;100.00
692;BME280;70475;50.084;8.576;2024-03-02T06:17:36;99523.41;;;1.79;100.00
692;BME280;70475;50.084;8.576;2024-03-02T06:20:05;99520.84;;;1.95;100.00
692;BME280;70475;50.084;8.576;2024-03-02T06:22:36;99521.84;;;1.94;100.00
692;BME280;70475;50.084;8.576;2024-03-02T06:25:04;99513.75;;;1.79;100.00
692;BME280;70475;50.084;8.576;2024-03-02T06:27:32;99528.00;;;1.77;100.00
692;BME280;70475;50.084;8.576;2024-03-02T06:29:59;99531.13;;;1.80;100.00
692;BME280;70475;50.084;8.576;2024-03-02T06:32:26;99532.66;;;1.91;100.00
692;BME280;70475;50.084;8.576;2024-03-02T06:34:53;99530.25;;;2.05;100.00
692;BME280;70475;50.084;8.576;2024-03-02T06:37:21;99532.31;;;2.20;100.00
692;BME280;70475;50.084;8.576;2024-03-02T06:39:50;99529.53;;;2.21;100.00
692;BME280;70475;50.084;8.576;2024-03-02T06:42:18;99531.28;;;2.12;100.00
692;BME280;70475;50.084;8.576;2024-03-02T06:44:46;99538.28;;;2.04;100.00
692;BME280;70475;50.084;8.576;2024-03-02T06:47:13;99540.91;;;1.96;100.00
692;BME280;70475;50.084;8.576;2024-03-02T06:49:43;99530.78;;;2.09;100.00
692;BME280;70475;50.084;8.576;2024-03-02T06:52:10;99528.59;;;2.30;100.00
692;BME280;70475;50.084;8.576;2024-03-02T06:54:38;99524.91;;;2.15;100.00
692;BME280;70475;50.084;8.576;2024-03-02T06:57:07;99524.84;;;2.07;100.00
692;BME280;70475;50.084;8.576;2024-03-02T06:59:35;99522.53;;;2.04;100.00
692;BME280;70475;50.084;8.576;2024-03-02T07:02:03;99531.56;;;2.01;100.00
692;BME280;70475;50.084;8.576;2024-03-02T07:04:30;99535.03;;;2.02;100.00
692;BME280;70475;50.084;8.576;2024-03-02T07:06:58;99533.34;;;2.01;100.00
692;BME280;70475;50.084;8.576;2024-03-02T07:09:26;99542.06;;;2.01;100.00
692;BME280;70475;50.084;8.576;2024-03-02T07:11:53;99547.78;;;1.97;100.00
692;BME280;70475;50.084;8.576;2024-03-02T07:14:22;99540.13;;;2.11;100.00
692;BME280;70475;50.084;8.576;2024-03-02T07:17:13;99542.28;;;2.16;100.00
692;BME280;70475;50.084;8.576;2024-03-02T07:19:40;99547.34;;;2.09;100.00
692;BME280;70475;50.084;8.576;2024-03-02T07:22:08;99551.59;;;2.02;100.00
692;BME280;70475;50.084;8.576;2024-03-02T07:24:40;99553.03;;;1.97;100.00
692;BME280;70475;50.084;8.576;2024-03-02T07:27:09;99560.06;;;1.96;100.00
692;BME280;70475;50.084;8.576;2024-03-02T07:29:38;99557.66;;;2.03;100.00
692;BME280;70475;50.084;8.576;2024-03-02T07:32:06;99544.56;;;2.11;100.00
692;BME280;70475;50.084;8.576;2024-03-02T07:34:34;99561.16;;;2.11;100.00
692;BME280;70475;50.084;8.576;2024-03-02T07:37:02;99564.63;;;2.20;100.00
692;BME280;70475;50.084;8.576;2024-03-02T07:39:30;99567.09;;;2.22;100.00
692;BME280;70475;50.084;8.576;2024-03-02T07:41:59;99562.53;;;2.32;100.00
692;BME280;70475;50.084;8.576;2024-03-02T07:44:27;99557.38;;;2.48;100.00
692;BME280;70475;50.084;8.576;2024-03-02T07:46:56;99573.81;;;2.58;100.00
692;BME280;70475;50.084;8.576;2024-03-02T07:49:23;99572.72;;;2.68;100.00
692;BME280;70475;50.084;8.576;2024-03-02T07:51:53;99577.31;;;2.74;100.00
692;BME280;70475;50.084;8.576;2024-03-02T07:54:20;99570.16;;;3.00;100.00
692;BME280;70475;50.084;8.576;2024-03-02T07:56:48;99573.31;;;3.36;100.00
692;BME280;70475;50.084;8.576;2024-03-02T07:59:16;99574.91;;;3.69;100.00
692;BME280;70475;50.084;8.576;2024-03-02T08:01:44;99577.19;;;3.88;100.00
692;BME280;70475;50.084;8.576;2024-03-02T08:04:13;99582.13;;;4.46;100.00
692;BME280;70475;50.084;8.576;2024-03-02T08:06:41;99582.28;;;4.83;100.00
692;BME280;70475;50.084;8.576;2024-03-02T08:09:08;99579.09;;;4.95;100.00
692;BME280;70475;50.084;8.576;2024-03-02T08:11:36;99580.16;;;5.09;100.00
692;BME280;70475;50.084;8.576;2024-03-02T08:14:05;99583.50;;;5.25;100.00
692;BME280;70475;50.084;8.576;2024-03-02T08:16:32;99576.75;;;5.45;100.00
692;BME280;70475;50.084;8.576;2024-03-02T08:19:00;99570.50;;;5.61;100.00
692;BME280;70475;50.084;8.576;2024-03-02T08:21:32;99565.72;;;5.79;100.00
692;BME280;70475;50.084;8.576;2024-03-02T08:24:02;99570.47;;;6.06;100.00
692;BME280;70475;50.084;8.576;2024-03-02T08:26:30;99574.25;;;6.18;100.00
692;BME280;70475;50.084;8.576;2024-03-02T08:28:58;99578.75;;;6.32;100.00
692;BME280;70475;50.084;8.576;2024-03-02T08:31:28;99568.25;;;6.53;100.00
692;BME280;70475;50.084;8.576;2024-03-02T08:33:56;99572.81;;;6.59;100.00
692;BME280;70475;50.084;8.576;2024-03-02T08:36:25;99568.78;;;6.63;100.00
692;BME280;70475;50.084;8.576;2024-03-02T08:38:54;99583.34;;;6.88;100.00
692;BME280;70475;50.084;8.576;2024-03-02T08:41:22;99578.88;;;6.89;100.00
692;BME280;70475;50.084;8.576;2024-03-02T08:43:49;99585.78;;;6.90;100.00
692;BME280;70475;50.084;8.576;2024-03-02T08:46:17;99583.97;;;6.90;100.00
692;BME280;70475;50.084;8.576;2024-03-02T08:48:44;99582.09;;;7.05;100.00
692;BME280;70475;50.084;8.576;2024-03-02T08:51:12;99581.59;;;7.16;100.00
692;BME280;70475;50.084;8.576;2024-03-02T08:53:39;99585.41;;;7.28;100.00
692;BME280;70475;50.084;8.576;2024-03-02T08:56:08;99584.66;;;7.34;100.00
692;BME280;70475;50.084;8.576;2024-03-02T08:58:36;99574.09;;;7.41;100.00
692;BME280;70475;50.084;8.576;2024-03-02T09:01:03;99577.22;;;7.44;100.00
692;BME280;70475;50.084;8.576;2024-03-02T09:03:33;99585.00;;;7.52;100.00
692;BME280;70475;50.084;8.576;2024-03-02T09:06:01;99584.63;;;7.55;100.00
692;BME280;70475;50.084;8.576;2024-03-02T09:08:29;99587.00;;;7.71;100.00
692;BME280;70475;50.084;8.576;2024-03-02T09:10:56;99590.41;;;7.86;100.00
692;BME280;70475;50.084;8.576;2024-03-02T09:13:26;99584.09;;;7.87;100.00
692;BME280;70475;50.084;8.576;2024-03-02T09:15:53;99583.56;;;7.71;100.00
692;BME280;70475;50.084;8.576;2024-03-02T09:18:21;99592.91;;;7.94;100.00
692;BME280;70475;50.084;8.576;2024-03-02T09:20:49;99590.28;;;8.01;100.00
692;BME280;70475;50.084;8.576;2024-03-02T09:23:16;99572.53;;;7.95;100.00
692;BME280;70475;50.084;8.576;2024-03-02T09:25:44;99581.00;;;8.11;100.00
692;BME280;70475;50.084;8.576;2024-03-02T09:28:11;99576.81;;;8.23;100.00
692;BME280;70475;50.084;8.576;2024-03-02T09:30:40;99575.06;;;8.37;100.00
692;BME280;70475;50.084;8.576;2024-03-02T09:33:08;99577.72;;;8.37;100.00
692;BME280;70475;50.084;8.576;2024-03-02T09:35:38;99570.34;;;8.32;100.00
692;BME280;70475;50.084;8.576;2024-03-02T09:38:06;99571.97;;;8.33;100.00
692;BME280;70475;50.084;8.576;2024-03-02T09:40:34;99564.81;;;8.68;100.00
692;BME280;70475;50.084;8.576;2024-03-02T09:43:02;99566.09;;;8.79;100.00
692;BME280;70475;50.084;8.576;2024-03-02T09:45:30;99567.16;;;8.91;100.00
692;BME280;70475;50.084;8.576;2024-03-02T09:48:00;99574.13;;;8.98;100.00
692;BME280;70475;50.084;8.576;2024-03-02T09:50:27;99570.63;;;9.04;100.00
692;BME280;70475;50.084;8.576;2024-03-02T09:52:55;99566.59;;;9.15;100.00
692;BME280;70475;50.084;8.576;2024-03-02T09:55:26;99562.53;;;9.38;100.00
692;BME280;70475;50.084;8.576;2024-03-02T09:57:56;99560.13;;;9.56;100.00
692;BME280;70475;50.084;8.576;2024-03-02T10:00:24;99560.50;;;9.34;100.00
692;BME280;70475;50.084;8.576;2024-03-02T10:02:51;99562.56;;;9.32;100.00
692;BME280;70475;50.084;8.576;2024-03-02T10:05:27;99561.50;;;9.20;100.00
692;BME280;70475;50.084;8.576;2024-03-02T10:07:59;99562.16;;;9.35;100.00
692;BME280;70475;50.084;8.576;2024-03-02T10:10:35;99557.25;;;9.32;100.00
692;BME280;70475;50.084;8.576;2024-03-02T10:13:06;99550.09;;;9.52;100.00
692;BME280;70475;50.084;8.576;2024-03-02T10:15:35;99549.88;;;9.53;100.00
692;BME280;70475;50.084;8.576;2024-03-02T10:18:04;99550.31;;;9.70;100.00
692;BME280;70475;50.084;8.576;2024-03-02T10:20:33;99554.38;;;9.92;100.00
692;BME280;70475;50.084;8.576;2024-03-02T10:23:10;99545.81;;;9.77;100.00
692;BME280;70475;50.084;8.576;2024-03-02T10:25:38;99547.63;;;9.83;100.00
692;BME280;70475;50.084;8.576;2024-03-02T10:28:20;99540.47;;;9.90;100.00
692;BME280;70475;50.084;8.576;2024-03-02T10:30:48;99542.31;;;9.83;100.00
692;BME280;70475;50.084;8.576;2024-03-02T10:33:17;99537.00;;;10.09;100.00
692;BME280;70475;50.084;8.576;2024-03-02T10:35:47;99531.84;;;10.27;100.00
692;BME280;70475;50.084;8.576;2024-03-02T10:38:16;99532.72;;;10.14;100.00
692;BME280;70475;50.084;8.576;2024-03-02T10:40:46;99532.28;;;9.91;100.00
692;BME280;70475;50.084;8.576;2024-03-02T10:43:14;99528.81;;;9.84;100.00
692;BME280;70475;50.084;8.576;2024-03-02T10:45:43;99532.91;;;10.06;100.00
692;BME280;70475;50.084;8.576;2024-03-02T10:48:11;99526.75;;;10.19;100.00
692;BME280;70475;50.084;8.576;2024-03-02T10:50:39;99522.59;;;10.36;100.00
692;BME280;70475;50.084;8.576;2024-03-02T10:53:08;99526.97;;;10.17;100.00
692;BME280;70475;50.084;8.576;2024-03-02T10:55:35;99522.06;;;10.08;100.00
692;BME280;70475;50.084;8.576;2024-03-02T10:58:04;99522.06;;;9.95;100.00
692;BME280;70475;50.084;8.576;2024-03-02T11:00:34;99517.09;;;10.31;100.00
692;BME280;70475;50.084;8.576;2024-03-02T11:03:05;99512.56;;;10.38;100.00
692;BME280;70475;50.084;8.576;2024-03-02T11:05:36;99514.56;;;10.49;100.00
692;BME280;70475;50.084;8.576;2024-03-02T11:08:08;99507.97;;;10.58;100.00
692;BME280;70475;50.084;8.576;2024-03-02T11:10:38;99510.22;;;10.61;100.00
692;BME280;70475;50.084;8.576;2024-03-02T11:13:09;99504.06;;;10.67;100.00
692;BME280;70475;50.084;8.576;2024-03-02T11:15:39;99503.22;;;10.73;100.00
692;BME280;70475;50.084;8.576;2024-03-02T11:18:08;99498.50;;;10.75;100.00
692;BME280;70475;50.084;8.576;2024-03-02T11:20:36;99495.38;;;10.78;100.00
692;BME280;70475;50.084;8.576;2024-03-02T11:23:07;99501.47;;;10.92;100.00
692;BME280;70475;50.084;8.576;2024-03-02T11:25:35;99504.63;;;11.13;100.00
692;BME280;70475;50.084;8.576;2024-03-02T11:28:06;99501.25;;;11.24;100.00
692;BME280;70475;50.084;8.576;2024-03-02T11:30:51;99483.50;;;11.67;100.00
692;BME280;70475;50.084;8.576;2024-03-02T11:33:23;99481.75;;;11.79;100.00
692;BME280;70475;50.084;8.576;2024-03-02T11:35:56;99487.69;;;11.99;100.00
692;BME280;70475;50.084;8.576;2024-03-02T11:38:30;99483.63;;;11.97;100.00
692;BME280;70475;50.084;8.576;2024-03-02T11:40:59;99480.88;;;11.85;100.00
692;BME280;70475;50.084;8.576;2024-03-02T11:43:28;99481.38;;;11.51;100.00
692;BME280;70475;50.084;8.576;2024-03-02T11:45:57;99466.78;;;11.54;100.00
692;BME280;70475;50.084;8.576;2024-03-02T11:48:26;99468.34;;;11.61;100.00
692;BME280;70475;50.084;8.576;2024-03-02T11:50:58;99467.44;;;11.74;100.00
692;BME280;70475;50.084;8.576;2024-03-02T11:53:27;99469.53;;;11.90;100.00
692;BME280;70475;50.084;8.576;2024-03-02T11:55:59;99455.31;;;11.96;100.00
692;BME280;70475;50.084;8.576;2024-03-02T11:58:27;99460.56;;;12.02;100.00
692;BME280;70475;50.084;8.576;2024-03-02T12:00:56;99453.06;;;12.11;100.00
692;BME280;70475;50.084;8.576;2024-03-02T12:03:25;99451.06;;;12.24;100.00
692;BME280;70475;50.084;8.576;2024-03-02T12:05:54;99439.25;;;12.50;100.00
692;BME280;70475;50.084;8.576;2024-03-02T12:08:22;99435.94;;;12.36;100.00
692;BME280;70475;50.084;8.576;2024-03-02T12:10:57;99424.97;;;12.44;100.00
692;BME280;70475;50.084;8.576;2024-03-02T12:13:27;99423.78;;;12.70;100.00
692;BME280;70475;50.084;8.576;2024-03-02T12:15:55;99423.00;;;12.81;100.00
692;BME280;70475;50.084;8.576;2024-03-02T12:18:23;99418.13;;;12.78;100.00
692;BME280;70475;50.084;8.576;2024-03-02T12:20:51;99420.53;;;12.68;100.00
692;BME280;70475;50.084;8.576;2024-03-02T12:23:22;99418.66;;;12.69;100.00
692;BME280;70475;50.084;8.576;2024-03-02T12:25:50;99417.63;;;12.70;100.00
692;BME280;70475;50.084;8.576;2024-03-02T12:28:19;99419.75;;;12.79;100.00
692;BME280;70475;50.084;8.576;2024-03-02T12:30:48;99410.59;;;12.87;100.00
692;BME280;70475;50.084;8.576;2024-03-02T12:33:16;99408.72;;;13.05;100.00
692;BME280;70475;50.084;8.576;2024-03-02T12:35:44;99398.47;;;13.14;100.00
692;BME280;70475;50.084;8.576;2024-03-02T12:38:12;99402.25;;;12.95;100.00
692;BME280;70475;50.084;8.576;2024-03-02T12:40:39;99395.72;;;12.91;100.00
692;BME280;70475;50.084;8.576;2024-03-02T12:43:07;99393.00;;;13.09;100.00
692;BME280;70475;50.084;8.576;2024-03-02T12:45:35;99390.56;;;13.19;99.42
692;BME280;70475;50.084;8.576;2024-03-02T12:48:05;99386.50;;;13.28;95.34
692;BME280;70475;50.084;8.576;2024-03-02T12:50:33;99383.97;;;13.33;90.86
692;BME280;70475;50.084;8.576;2024-03-02T12:53:01;99377.56;;;13.45;94.39
692;BME280;70475;50.084;8.576;2024-03-02T12:55:28;99375.47;;;13.47;93.86
692;BME280;70475;50.084;8.576;2024-03-02T12:57:57;99382.34;;;13.32;95.02
692;BME280;70475;50.084;8.576;2024-03-02T13:00:26;99374.88;;;13.45;95.78
692;BME280;70475;50.084;8.576;2024-03-02T13:02:54;99375.91;;;13.67;90.54
692;BME280;70475;50.084;8.576;2024-03-02T13:05:31;99369.53;;;13.68;88.26
692;BME280;70475;50.084;8.576;2024-03-02T13:07:59;99369.84;;;13.72;92.19
692;BME280;70475;50.084;8.576;2024-03-02T13:10:29;99372.78;;;13.82;91.06
692;BME280;70475;50.084;8.576;2024-03-02T13:12:58;99361.06;;;14.11;90.76
692;BME280;70475;50.084;8.576;2024-03-02T13:15:26;99362.88;;;13.82;89.09
692;BME280;70475;50.084;8.576;2024-03-02T13:17:53;99365.56;;;13.71;85.93
692;BME280;70475;50.084;8.576;2024-03-02T13:20:21;99358.34;;;13.83;86.90
692;BME280;70475;50.084;8.576;2024-03-02T13:22:53;99357.41;;;14.28;85.12
692;BME280;70475;50.084;8.576;2024-03-02T13:25:20;99358.34;;;14.22;82.35
692;BME280;70475;50.084;8.576;2024-03-02T13:27:48;99351.69;;;14.36;80.54
692;BME280;70475;50.084;8.576;2024-03-02T13:30:16;99353.84;;;14.51;80.96
692;BME280;70475;50.084;8.576;2024-03-02T13:32:43;99348.38;;;14.46;77.50
692;BME280;70475;50.084;8.576;2024-03-02T13:35:11;99345.47;;;14.08;83.09
692;BME280;70475;50.084;8.576;2024-03-02T13:37:39;99352.78;;;14.24;82.74
692;BME280;70475;50.084;8.576;2024-03-02T13:40:10;99344.38;;;14.32;82.91
692;BME280;70475;50.084;8.576;2024-03-02T13:42:40;99340.81;;;14.43;83.70